الصفحة الرئيسية
METAR-TAF:

METAR-TAF

مطار :

باماكو, مالي

مطار باماكو موديبو كيتا الدولي

دائرة عرض: 12-32N, خط طول: 007-57W, ارتفاع: 380 متر

مراقبة الطقس الحالي

تاريخ ووقت الإصدار 17 دقيقة قبل الساعة 11:00UTC
ريح 8 عقدة من الشمال/الشمال الشرقي
درجة الحرارة 27°درجة مئوية
الرطوبة 16%
ضغط 1015 hPa
الرؤية 10 كم أو أكثر
الغيوم لا تقل 1500 م ولا وجود لمزنة ركامية السحاب الأسود

METAR: GABS 171100Z 03008KT CAVOK 27/M01 Q1015 NOSIG

زمن: 11:17 (11:17 UTC)

توقعات

تاريخ ووقت الإصدار 6ساعات و 17 دقيقة قبل الساعة 05:00UTC
التوقعات صالحة من17 الساعة 06 UTC إلى 18 الساعة 12 UTC
ريح 5 عقدةمن اتجاهات متغيرة
الرؤية: 8000 متر
نظرية الاحتمالات 30% :
مؤقت
من 17 الساعة 07 UTC إلى 17 الساعة 10 UTC
الرؤية: 4500 متر
العجاج
مؤقت
من 17 الساعة 22 UTC إلى 18 الساعة 06 UTC
ريح 10 عقدة من الشمال

TAF: GABS 170500Z 1706/1812 VRB05KT 8000 NSC PROB30 TEMPO 1707/1710 4500 HZ TEMPO 1722/1806 36010KT

أرصاد الطقس والتوقعات من أكثر من 4000 مطار (تقارير الطقس للمطار METAR والتنبؤ بالطقس بالمطارTAF).

المحطات المتاحة هي النقط الصفراء والحمراء على الخريطة.

حرك المؤشر فوق النقطة لمعرفة اسم المحطة.

ثم انقر لمعرفة أرصاد وتوقعات الطقس.

لتغيير الخارطة: اضغط على الأزرار الخضراء مع رمز الصليب الأسود للتكبير. على الزر الأخضر مع شرطة للتصغير، أو على الأسهم الخضراء للخرائط المجاورة.


METAR-TAF: